sensor_id;sensor_type;location;lat;lon;timestamp;pressure;altitude;pressure_sealevel;temperature
71630;BMP280;59479;51.902;8.212;2023-09-19T00:00:23;100035.66;;;19.13
71630;BMP280;59479;51.902;8.212;2023-09-19T00:02:52;100034.00;;;19.12
71630;BMP280;59479;51.902;8.212;2023-09-19T00:05:18;100036.41;;;19.15
71630;BMP280;59479;51.902;8.212;2023-09-19T00:07:44;100049.97;;;19.15
71630;BMP280;59479;51.902;8.212;2023-09-19T00:10:10;100034.81;;;19.12
71630;BMP280;59479;51.902;8.212;2023-09-19T00:12:35;100045.97;;;19.10
71630;BMP280;59479;51.902;8.212;2023-09-19T00:15:00;100051.06;;;19.10
71630;BMP280;59479;51.902;8.212;2023-09-19T00:17:27;100050.88;;;18.94
71630;BMP280;59479;51.902;8.212;2023-09-19T00:19:55;100058.69;;;18.90
71630;BMP280;59479;51.902;8.212;2023-09-19T00:22:21;100057.28;;;18.83
71630;BMP280;59479;51.902;8.212;2023-09-19T00:24:46;100053.66;;;18.89
71630;BMP280;59479;51.902;8.212;2023-09-19T00:27:11;100045.59;;;18.79
71630;BMP280;59479;51.902;8.212;2023-09-19T00:29:36;100064.88;;;18.85
71630;BMP280;59479;51.902;8.212;2023-09-19T00:32:02;100056.25;;;18.87
71630;BMP280;59479;51.902;8.212;2023-09-19T00:34:28;100066.22;;;18.73
71630;BMP280;59479;51.902;8.212;2023-09-19T00:36:55;100073.91;;;18.72
71630;BMP280;59479;51.902;8.212;2023-09-19T00:39:20;100062.16;;;18.69
71630;BMP280;59479;51.902;8.212;2023-09-19T00:41:47;100076.28;;;18.76
71630;BMP280;59479;51.902;8.212;2023-09-19T00:44:12;100071.81;;;18.81
71630;BMP280;59479;51.902;8.212;2023-09-19T00:46:39;100076.50;;;18.70
71630;BMP280;59479;51.902;8.212;2023-09-19T00:49:04;100075.22;;;18.60
71630;BMP280;59479;51.902;8.212;2023-09-19T00:51:30;100079.50;;;18.60
71630;BMP280;59479;51.902;8.212;2023-09-19T00:53:56;100076.50;;;18.51
71630;BMP280;59479;51.902;8.212;2023-09-19T00:56:23;100082.22;;;18.55
71630;BMP280;59479;51.902;8.212;2023-09-19T00:58:49;100083.06;;;18.56
71630;BMP280;59479;51.902;8.212;2023-09-19T01:01:14;100075.34;;;18.57
71630;BMP280;59479;51.902;8.212;2023-09-19T01:03:41;100090.50;;;18.60
71630;BMP280;59479;51.902;8.212;2023-09-19T01:06:07;100093.72;;;18.44
71630;BMP280;59479;51.902;8.212;2023-09-19T01:08:33;100096.13;;;18.47
71630;BMP280;59479;51.902;8.212;2023-09-19T01:14:10;100093.25;;;18.56
71630;BMP280;59479;51.902;8.212;2023-09-19T01:17:07;100086.44;;;18.56
71630;BMP280;59479;51.902;8.212;2023-09-19T01:22:50;100097.38;;;18.58
71630;BMP280;59479;51.902;8.212;2023-09-19T01:28:14;100114.66;;;18.51
71630;BMP280;59479;51.902;8.212;2023-09-19T01:30:43;100109.88;;;18.43
71630;BMP280;59479;51.902;8.212;2023-09-19T01:33:09;100116.38;;;18.50
71630;BMP280;59479;51.902;8.212;2023-09-19T01:35:38;100123.25;;;18.48
71630;BMP280;59479;51.902;8.212;2023-09-19T01:38:05;100122.44;;;18.48
71630;BMP280;59479;51.902;8.212;2023-09-19T01:40:32;100116.97;;;18.56
71630;BMP280;59479;51.902;8.212;2023-09-19T01:45:37;100130.19;;;18.45
71630;BMP280;59479;51.902;8.212;2023-09-19T01:48:14;100133.38;;;18.50
71630;BMP280;59479;51.902;8.212;2023-09-19T01:50:52;100139.81;;;18.58
71630;BMP280;59479;51.902;8.212;2023-09-19T01:53:28;100137.50;;;18.52
71630;BMP280;59479;51.902;8.212;2023-09-19T01:55:57;100138.97;;;18.57
71630;BMP280;59479;51.902;8.212;2023-09-19T01:58:39;100139.06;;;18.56
71630;BMP280;59479;51.902;8.212;2023-09-19T02:01:10;100155.63;;;18.45
71630;BMP280;59479;51.902;8.212;2023-09-19T02:03:38;100146.66;;;18.36
71630;BMP280;59479;51.902;8.212;2023-09-19T02:06:04;100148.97;;;18.41
71630;BMP280;59479;51.902;8.212;2023-09-19T02:08:30;100149.78;;;18.43
71630;BMP280;59479;51.902;8.212;2023-09-19T02:10:58;100161.06;;;18.36
71630;BMP280;59479;51.902;8.212;2023-09-19T02:13:25;100151.91;;;18.32
71630;BMP280;59479;51.902;8.212;2023-09-19T02:15:50;100155.84;;;18.39
71630;BMP280;59479;51.902;8.212;2023-09-19T02:18:16;100163.69;;;18.34
71630;BMP280;59479;51.902;8.212;2023-09-19T02:20:42;100169.41;;;18.39
71630;BMP280;59479;51.902;8.212;2023-09-19T02:23:09;100162.94;;;18.31
71630;BMP280;59479;51.902;8.212;2023-09-19T02:25:34;100167.16;;;18.32
71630;BMP280;59479;51.902;8.212;2023-09-19T02:28:04;100163.31;;;18.22
71630;BMP280;59479;51.902;8.212;2023-09-19T02:30:30;100163.56;;;18.16
71630;BMP280;59479;51.902;8.212;2023-09-19T02:32:56;100164.06;;;18.24
71630;BMP280;59479;51.902;8.212;2023-09-19T02:35:21;100162.28;;;18.26
71630;BMP280;59479;51.902;8.212;2023-09-19T02:37:48;100161.31;;;18.30
71630;BMP280;59479;51.902;8.212;2023-09-19T02:40:14;100172.19;;;18.33
71630;BMP280;59479;51.902;8.212;2023-09-19T02:42:47;100163.59;;;18.36
71630;BMP280;59479;51.902;8.212;2023-09-19T02:45:15;100164.72;;;18.29
71630;BMP280;59479;51.902;8.212;2023-09-19T02:47:42;100172.59;;;18.23
71630;BMP280;59479;51.902;8.212;2023-09-19T02:50:08;100176.91;;;18.21
71630;BMP280;59479;51.902;8.212;2023-09-19T02:52:37;100177.03;;;18.18
71630;BMP280;59479;51.902;8.212;2023-09-19T02:55:02;100183.00;;;18.17
71630;BMP280;59479;51.902;8.212;2023-09-19T02:57:29;100183.16;;;18.12
71630;BMP280;59479;51.902;8.212;2023-09-19T02:59:56;100185.44;;;18.20
71630;BMP280;59479;51.902;8.212;2023-09-19T03:02:21;100182.22;;;18.15
71630;BMP280;59479;51.902;8.212;2023-09-19T03:04:49;100193.34;;;18.12
71630;BMP280;59479;51.902;8.212;2023-09-19T03:07:16;100182.56;;;18.06
71630;BMP280;59479;51.902;8.212;2023-09-19T03:09:42;100190.03;;;18.09
71630;BMP280;59479;51.902;8.212;2023-09-19T03:12:08;100196.63;;;18.16
71630;BMP280;59479;51.902;8.212;2023-09-19T03:14:33;100193.22;;;18.15
71630;BMP280;59479;51.902;8.212;2023-09-19T03:17:00;100196.97;;;18.06
71630;BMP280;59479;51.902;8.212;2023-09-19T03:19:26;100200.19;;;18.10
71630;BMP280;59479;51.902;8.212;2023-09-19T03:21:52;100210.53;;;18.06
71630;BMP280;59479;51.902;8.212;2023-09-19T03:24:18;100210.84;;;17.97
71630;BMP280;59479;51.902;8.212;2023-09-19T03:26:44;100207.69;;;17.91
71630;BMP280;59479;51.902;8.212;2023-09-19T03:29:10;100207.38;;;18.00
71630;BMP280;59479;51.902;8.212;2023-09-19T03:31:36;100206.53;;;17.99
71630;BMP280;59479;51.902;8.212;2023-09-19T03:34:04;100200.41;;;18.05
71630;BMP280;59479;51.902;8.212;2023-09-19T03:36:30;100207.88;;;17.86
71630;BMP280;59479;51.902;8.212;2023-09-19T03:38:55;100200.25;;;17.86
71630;BMP280;59479;51.902;8.212;2023-09-19T03:41:21;100207.03;;;17.86
71630;BMP280;59479;51.902;8.212;2023-09-19T03:43:46;100203.75;;;17.82
71630;BMP280;59479;51.902;8.212;2023-09-19T03:46:12;100204.00;;;17.76
71630;BMP280;59479;51.902;8.212;2023-09-19T03:48:40;100203.09;;;17.77
71630;BMP280;59479;51.902;8.212;2023-09-19T03:51:05;100201.66;;;17.70
71630;BMP280;59479;51.902;8.212;2023-09-19T03:53:31;100195.81;;;17.68
71630;BMP280;59479;51.902;8.212;2023-09-19T03:55:56;100196.66;;;17.67
71630;BMP280;59479;51.902;8.212;2023-09-19T03:58:22;100208.00;;;17.59
71630;BMP280;59479;51.902;8.212;2023-09-19T04:00:47;100203.38;;;17.70
71630;BMP280;59479;51.902;8.212;2023-09-19T04:03:15;100200.97;;;17.66
71630;BMP280;59479;51.902;8.212;2023-09-19T04:05:45;100203.56;;;17.64
71630;BMP280;59479;51.902;8.212;2023-09-19T04:08:12;100220.44;;;17.67
71630;BMP280;59479;51.902;8.212;2023-09-19T04:10:37;100213.13;;;17.58
71630;BMP280;59479;51.902;8.212;2023-09-19T04:13:03;100211.91;;;17.67
71630;BMP280;59479;51.902;8.212;2023-09-19T04:15:29;100208.00;;;17.59
71630;BMP280;59479;51.902;8.212;2023-09-19T04:17:54;100206.53;;;17.52
71630;BMP280;59479;51.902;8.212;2023-09-19T04:20:20;100210.22;;;17.44
71630;BMP280;59479;51.902;8.212;2023-09-19T04:22:45;100211.47;;;17.57
71630;BMP280;59479;51.902;8.212;2023-09-19T04:25:12;100223.28;;;17.58
71630;BMP280;59479;51.902;8.212;2023-09-19T04:27:37;100227.72;;;17.53
71630;BMP280;59479;51.902;8.212;2023-09-19T04:30:04;100219.19;;;17.54
71630;BMP280;59479;51.902;8.212;2023-09-19T04:32:35;100235.63;;;17.44
71630;BMP280;59479;51.902;8.212;2023-09-19T04:35:01;100236.78;;;17.35
71630;BMP280;59479;51.902;8.212;2023-09-19T04:37:30;100238.19;;;17.44
71630;BMP280;59479;51.902;8.212;2023-09-19T04:39:55;100233.38;;;17.36
71630;BMP280;59479;51.902;8.212;2023-09-19T04:42:21;100242.00;;;17.31
71630;BMP280;59479;51.902;8.212;2023-09-19T04:44:47;100240.91;;;17.39
71630;BMP280;59479;51.902;8.212;2023-09-19T04:47:14;100238.91;;;17.23
71630;BMP280;59479;51.902;8.212;2023-09-19T04:49:41;100237.81;;;17.30
71630;BMP280;59479;51.902;8.212;2023-09-19T04:52:06;100238.00;;;17.24
71630;BMP280;59479;51.902;8.212;2023-09-19T04:54:32;100244.66;;;17.28
71630;BMP280;59479;51.902;8.212;2023-09-19T04:56:59;100254.69;;;17.31
71630;BMP280;59479;51.902;8.212;2023-09-19T04:59:24;100260.63;;;17.31
71630;BMP280;59479;51.902;8.212;2023-09-19T05:01:49;100255.06;;;17.21
71630;BMP280;59479;51.902;8.212;2023-09-19T05:04:15;100254.81;;;17.28
71630;BMP280;59479;51.902;8.212;2023-09-19T05:06:40;100263.53;;;17.21
71630;BMP280;59479;51.902;8.212;2023-09-19T05:09:06;100260.03;;;17.24
71630;BMP280;59479;51.902;8.212;2023-09-19T05:11:31;100273.78;;;17.17
71630;BMP280;59479;51.902;8.212;2023-09-19T05:13:56;100257.66;;;17.18
71630;BMP280;59479;51.902;8.212;2023-09-19T05:16:22;100258.56;;;17.17
71630;BMP280;59479;51.902;8.212;2023-09-19T05:18:47;100274.09;;;17.08
71630;BMP280;59479;51.902;8.212;2023-09-19T05:21:12;100261.09;;;17.17
71630;BMP280;59479;51.902;8.212;2023-09-19T05:23:38;100284.03;;;17.14
71630;BMP280;59479;51.902;8.212;2023-09-19T05:26:03;100292.34;;;17.20
71630;BMP280;59479;51.902;8.212;2023-09-19T05:28:30;100301.91;;;17.11
71630;BMP280;59479;51.902;8.212;2023-09-19T05:31:00;100306.88;;;17.14
71630;BMP280;59479;51.902;8.212;2023-09-19T05:33:26;100308.78;;;17.07
71630;BMP280;59479;51.902;8.212;2023-09-19T05:35:52;100311.25;;;17.10
71630;BMP280;59479;51.902;8.212;2023-09-19T05:38:19;100316.41;;;17.07
71630;BMP280;59479;51.902;8.212;2023-09-19T05:40:45;100320.78;;;17.02
71630;BMP280;59479;51.902;8.212;2023-09-19T05:43:11;100317.47;;;17.00
71630;BMP280;59479;51.902;8.212;2023-09-19T05:45:36;100321.91;;;16.94
71630;BMP280;59479;51.902;8.212;2023-09-19T05:48:13;100325.19;;;16.97
71630;BMP280;59479;51.902;8.212;2023-09-19T05:50:41;100331.72;;;17.04
71630;BMP280;59479;51.902;8.212;2023-09-19T05:53:06;100330.81;;;17.07
71630;BMP280;59479;51.902;8.212;2023-09-19T05:55:32;100341.88;;;17.04
71630;BMP280;59479;51.902;8.212;2023-09-19T05:57:58;100330.91;;;17.04
71630;BMP280;59479;51.902;8.212;2023-09-19T06:00:24;100340.41;;;16.97
71630;BMP280;59479;51.902;8.212;2023-09-19T06:02:53;100341.47;;;16.90
71630;BMP280;59479;51.902;8.212;2023-09-19T06:05:19;100332.78;;;16.97
71630;BMP280;59479;51.902;8.212;2023-09-19T06:07:45;100325.91;;;17.01
71630;BMP280;59479;51.902;8.212;2023-09-19T06:10:10;100327.13;;;16.89
71630;BMP280;59479;51.902;8.212;2023-09-19T06:12:39;100330.63;;;16.85
71630;BMP280;59479;51.902;8.212;2023-09-19T06:15:05;100325.56;;;16.85
71630;BMP280;59479;51.902;8.212;2023-09-19T06:17:31;100329.56;;;16.92
71630;BMP280;59479;51.902;8.212;2023-09-19T06:19:56;100316.09;;;16.90
71630;BMP280;59479;51.902;8.212;2023-09-19T06:22:22;100320.88;;;16.99
71630;BMP280;59479;51.902;8.212;2023-09-19T06:24:48;100319.31;;;16.95
71630;BMP280;59479;51.902;8.212;2023-09-19T06:27:14;100321.00;;;16.96
71630;BMP280;59479;51.902;8.212;2023-09-19T06:29:39;100331.03;;;16.99
71630;BMP280;59479;51.902;8.212;2023-09-19T06:32:08;100324.03;;;17.07
71630;BMP280;59479;51.902;8.212;2023-09-19T06:34:37;100328.69;;;16.93
71630;BMP280;59479;51.902;8.212;2023-09-19T06:37:04;100335.16;;;17.03
71630;BMP280;59479;51.902;8.212;2023-09-19T06:39:31;100339.22;;;17.09
71630;BMP280;59479;51.902;8.212;2023-09-19T06:41:56;100336.63;;;17.10
71630;BMP280;59479;51.902;8.212;2023-09-19T06:44:21;100348.91;;;16.96
71630;BMP280;59479;51.902;8.212;2023-09-19T06:46:50;100341.38;;;16.93
71630;BMP280;59479;51.902;8.212;2023-09-19T06:49:17;100338.78;;;16.96
71630;BMP280;59479;51.902;8.212;2023-09-19T06:51:42;100341.31;;;16.96
71630;BMP280;59479;51.902;8.212;2023-09-19T06:54:09;100347.25;;;16.95
71630;BMP280;59479;51.902;8.212;2023-09-19T06:56:34;100336.31;;;16.93
71630;BMP280;59479;51.902;8.212;2023-09-19T06:58:59;100335.25;;;17.00
71630;BMP280;59479;51.902;8.212;2023-09-19T07:01:25;100340.41;;;16.97
71630;BMP280;59479;51.902;8.212;2023-09-19T07:03:51;100332.00;;;16.95
71630;BMP280;59479;51.902;8.212;2023-09-19T07:06:16;100345.56;;;16.94
71630;BMP280;59479;51.902;8.212;2023-09-19T07:08:42;100347.34;;;16.92
71630;BMP280;59479;51.902;8.212;2023-09-19T07:11:10;100352.94;;;17.03
71630;BMP280;59479;51.902;8.212;2023-09-19T07:13:37;100353.06;;;16.99
71630;BMP280;59479;51.902;8.212;2023-09-19T07:16:03;100363.00;;;17.06
71630;BMP280;59479;51.902;8.212;2023-09-19T07:18:29;100364.72;;;17.04
71630;BMP280;59479;51.902;8.212;2023-09-19T07:20:57;100370.50;;;17.09
71630;BMP280;59479;51.902;8.212;2023-09-19T07:23:26;100365.25;;;17.15
71630;BMP280;59479;51.902;8.212;2023-09-19T07:25:51;100370.50;;;17.09
71630;BMP280;59479;51.902;8.212;2023-09-19T07:28:17;100367.22;;;17.06
71630;BMP280;59479;51.902;8.212;2023-09-19T07:30:43;100380.50;;;17.15
71630;BMP280;59479;51.902;8.212;2023-09-19T07:33:09;100379.91;;;17.06
71630;BMP280;59479;51.902;8.212;2023-09-19T07:35:38;100375.59;;;17.09
71630;BMP280;59479;51.902;8.212;2023-09-19T07:38:07;100368.94;;;17.05
71630;BMP280;59479;51.902;8.212;2023-09-19T07:40:33;100371.31;;;17.11
71630;BMP280;59479;51.902;8.212;2023-09-19T07:42:58;100372.88;;;17.15
71630;BMP280;59479;51.902;8.212;2023-09-19T07:45:28;100373.63;;;17.19
71630;BMP280;59479;51.902;8.212;2023-09-19T07:47:55;100376.91;;;17.22
71630;BMP280;59479;51.902;8.212;2023-09-19T07:50:20;100382.09;;;17.19
71630;BMP280;59479;51.902;8.212;2023-09-19T07:52:47;100379.53;;;17.19
71630;BMP280;59479;51.902;8.212;2023-09-19T07:55:13;100372.81;;;17.17
71630;BMP280;59479;51.902;8.212;2023-09-19T07:57:45;100375.34;;;17.18
71630;BMP280;59479;51.902;8.212;2023-09-19T08:00:11;100384.56;;;17.21
71630;BMP280;59479;51.902;8.212;2023-09-19T08:02:37;100376.13;;;17.20
71630;BMP280;59479;51.902;8.212;2023-09-19T08:05:03;100377.44;;;17.33
71630;BMP280;59479;51.902;8.212;2023-09-19T08:07:32;100380.78;;;17.33
71630;BMP280;59479;51.902;8.212;2023-09-19T08:09:57;100378.91;;;17.40
71630;BMP280;59479;51.902;8.212;2023-09-19T08:12:24;100377.19;;;17.40
71630;BMP280;59479;51.902;8.212;2023-09-19T08:14:49;100378.00;;;17.41
71630;BMP280;59479;51.902;8.212;2023-09-19T08:17:15;100375.63;;;17.36
71630;BMP280;59479;51.902;8.212;2023-09-19T08:19:41;100379.75;;;17.39
71630;BMP280;59479;51.902;8.212;2023-09-19T08:22:07;100388.84;;;17.46
71630;BMP280;59479;51.902;8.212;2023-09-19T08:24:36;100398.06;;;17.50
71630;BMP280;59479;51.902;8.212;2023-09-19T08:27:01;100399.69;;;17.51
71630;BMP280;59479;51.902;8.212;2023-09-19T08:29:30;100397.38;;;17.45
71630;BMP280;59479;51.902;8.212;2023-09-19T08:31:58;100392.97;;;17.50
71630;BMP280;59479;51.902;8.212;2023-09-19T08:34:24;100393.63;;;17.56
71630;BMP280;59479;51.902;8.212;2023-09-19T08:36:54;100396.25;;;17.53
71630;BMP280;59479;51.902;8.212;2023-09-19T08:39:22;100404.69;;;17.54
71630;BMP280;59479;51.902;8.212;2023-09-19T08:41:48;100412.19;;;17.58
71630;BMP280;59479;51.902;8.212;2023-09-19T08:44:14;100414.84;;;17.54
71630;BMP280;59479;51.902;8.212;2023-09-19T08:46:41;100415.84;;;17.50
71630;BMP280;59479;51.902;8.212;2023-09-19T08:49:27;100406.25;;;17.58
71630;BMP280;59479;51.902;8.212;2023-09-19T08:52:41;100412.44;;;17.76
71630;BMP280;59479;51.902;8.212;2023-09-19T08:55:12;100420.88;;;17.77
71630;BMP280;59479;51.902;8.212;2023-09-19T08:57:38;100416.00;;;17.71
71630;BMP280;59479;51.902;8.212;2023-09-19T09:00:08;100420.19;;;17.72
71630;BMP280;59479;51.902;8.212;2023-09-19T09:02:38;100424.16;;;17.80
71630;BMP280;59479;51.902;8.212;2023-09-19T09:05:07;100420.88;;;17.77
71630;BMP280;59479;51.902;8.212;2023-09-19T09:07:35;100430.69;;;17.62
71630;BMP280;59479;51.902;8.212;2023-09-19T09:10:03;100425.19;;;17.75
71630;BMP280;59479;51.902;8.212;2023-09-19T09:12:29;100431.78;;;17.80
71630;BMP280;59479;51.902;8.212;2023-09-19T09:14:54;100422.28;;;17.85
71630;BMP280;59479;51.902;8.212;2023-09-19T09:17:25;100417.22;;;17.85
71630;BMP280;59479;51.902;8.212;2023-09-19T09:19:54;100403.31;;;17.95
71630;BMP280;59479;51.902;8.212;2023-09-19T09:22:20;100409.13;;;17.99
71630;BMP280;59479;51.902;8.212;2023-09-19T09:24:58;100412.91;;;18.13
71630;BMP280;59479;51.902;8.212;2023-09-19T09:27:24;100418.88;;;18.12
71630;BMP280;59479;51.902;8.212;2023-09-19T09:29:52;100412.59;;;18.22
71630;BMP280;59479;51.902;8.212;2023-09-19T09:32:30;100417.78;;;18.19
71630;BMP280;59479;51.902;8.212;2023-09-19T09:35:00;100409.47;;;18.14
71630;BMP280;59479;51.902;8.212;2023-09-19T09:37:27;100414.34;;;18.20
71630;BMP280;59479;51.902;8.212;2023-09-19T09:39:58;100408.28;;;18.24
71630;BMP280;59479;51.902;8.212;2023-09-19T09:42:44;100416.53;;;18.30
71630;BMP280;59479;51.902;8.212;2023-09-19T09:47:48;100400.50;;;18.28
71630;BMP280;59479;51.902;8.212;2023-09-19T09:50:28;100399.72;;;18.26
71630;BMP280;59479;51.902;8.212;2023-09-19T09:52:56;100403.66;;;18.35
71630;BMP280;59479;51.902;8.212;2023-09-19T09:56:00;100403.31;;;18.44
71630;BMP280;59479;51.902;8.212;2023-09-19T09:58:26;100395.84;;;18.39
71630;BMP280;59479;51.902;8.212;2023-09-19T10:00:59;100400.00;;;18.42
71630;BMP280;59479;51.902;8.212;2023-09-19T10:03:41;100398.91;;;18.49
71630;BMP280;59479;51.902;8.212;2023-09-19T10:06:16;100399.47;;;18.56
71630;BMP280;59479;51.902;8.212;2023-09-19T10:09:17;100398.03;;;18.50
71630;BMP280;59479;51.902;8.212;2023-09-19T10:12:05;100403.22;;;18.47
71630;BMP280;59479;51.902;8.212;2023-09-19T10:14:36;100411.63;;;18.49
71630;BMP280;59479;51.902;8.212;2023-09-19T10:17:05;100414.13;;;18.50
71630;BMP280;59479;51.902;8.212;2023-09-19T10:19:42;100401.25;;;18.54
71630;BMP280;59479;51.902;8.212;2023-09-19T10:22:14;100410.38;;;18.60
71630;BMP280;59479;51.902;8.212;2023-09-19T10:24:47;100409.00;;;18.74
71630;BMP280;59479;51.902;8.212;2023-09-19T10:27:13;100402.44;;;18.67
71630;BMP280;59479;51.902;8.212;2023-09-19T10:29:48;100409.22;;;18.68
71630;BMP280;59479;51.902;8.212;2023-09-19T10:32:16;100404.56;;;18.79
71630;BMP280;59479;51.902;8.212;2023-09-19T10:34:47;100399.28;;;18.84
71630;BMP280;59479;51.902;8.212;2023-09-19T10:37:13;100396.59;;;18.88
71630;BMP280;59479;51.902;8.212;2023-09-19T10:39:40;100402.44;;;18.90
71630;BMP280;59479;51.902;8.212;2023-09-19T10:42:11;100389.81;;;18.87
71630;BMP280;59479;51.902;8.212;2023-09-19T10:44:41;100400.72;;;18.91
71630;BMP280;59479;51.902;8.212;2023-09-19T10:47:11;100401.28;;;18.98
71630;BMP280;59479;51.902;8.212;2023-09-19T10:49:46;100401.34;;;18.97
71630;BMP280;59479;51.902;8.212;2023-09-19T10:52:14;100396.25;;;18.97
71630;BMP280;59479;51.902;8.212;2023-09-19T10:54:46;100387.69;;;18.99
71630;BMP280;59479;51.902;8.212;2023-09-19T10:57:19;100393.63;;;19.00
71630;BMP280;59479;51.902;8.212;2023-09-19T11:00:07;100379.88;;;19.04
71630;BMP280;59479;51.902;8.212;2023-09-19T11:05:37;100391.63;;;19.08
71630;BMP280;59479;51.902;8.212;2023-09-19T11:08:06;100374.31;;;19.16
71630;BMP280;59479;51.902;8.212;2023-09-19T11:10:49;100386.47;;;19.09
71630;BMP280;59479;51.902;8.212;2023-09-19T11:13:29;100376.09;;;19.14
71630;BMP280;59479;51.902;8.212;2023-09-19T11:26:44;100367.25;;;19.22
71630;BMP280;59479;51.902;8.212;2023-09-19T11:29:25;100368.81;;;19.26
71630;BMP280;59479;51.902;8.212;2023-09-19T11:31:51;100362.59;;;19.33
71630;BMP280;59479;51.902;8.212;2023-09-19T11:39:50;100368.06;;;19.44
71630;BMP280;59479;51.902;8.212;2023-09-19T11:48:27;100361.44;;;19.61
71630;BMP280;59479;51.902;8.212;2023-09-19T11:51:09;100358.66;;;19.66
71630;BMP280;59479;51.902;8.212;2023-09-19T11:57:41;100362.50;;;19.76
71630;BMP280;59479;51.902;8.212;2023-09-19T12:00:19;100362.88;;;19.88
71630;BMP280;59479;51.902;8.212;2023-09-19T12:02:56;100364.06;;;19.79
71630;BMP280;59479;51.902;8.212;2023-09-19T12:06:13;100349.69;;;19.77
71630;BMP280;59479;51.902;8.212;2023-09-19T12:08:55;100358.09;;;19.79
71630;BMP280;59479;51.902;8.212;2023-09-19T12:12:01;100355.22;;;19.88
71630;BMP280;59479;51.902;8.212;2023-09-19T12:15:14;100349.94;;;19.92
71630;BMP280;59479;51.902;8.212;2023-09-19T12:18:30;100354.72;;;20.00
71630;BMP280;59479;51.902;8.212;2023-09-19T12:24:18;100330.72;;;20.04
71630;BMP280;59479;51.902;8.212;2023-09-19T12:26:45;100339.00;;;20.09
71630;BMP280;59479;51.902;8.212;2023-09-19T12:30:07;100342.31;;;20.11
71630;BMP280;59479;51.902;8.212;2023-09-19T12:32:38;100340.38;;;20.16
71630;BMP280;59479;51.902;8.212;2023-09-19T12:35:10;100335.91;;;20.21
71630;BMP280;59479;51.902;8.212;2023-09-19T12:37:52;100331.09;;;20.15
71630;BMP280;59479;51.902;8.212;2023-09-19T12:40:31;100331.44;;;20.25
71630;BMP280;59479;51.902;8.212;2023-09-19T12:43:04;100329.81;;;20.24
71630;BMP280;59479;51.902;8.212;2023-09-19T12:45:37;100333.13;;;20.26
71630;BMP280;59479;51.902;8.212;2023-09-19T12:48:23;100317.53;;;20.32
71630;BMP280;59479;51.902;8.212;2023-09-19T12:51:15;100323.34;;;20.36
71630;BMP280;59479;51.902;8.212;2023-09-19T12:53:56;100319.81;;;20.38
71630;BMP280;59479;51.902;8.212;2023-09-19T12:56:25;100311.19;;;20.41
71630;BMP280;59479;51.902;8.212;2023-09-19T12:59:01;100329.19;;;20.38
71630;BMP280;59479;51.902;8.212;2023-09-19T13:01:34;100311.19;;;20.41
71630;BMP280;59479;51.902;8.212;2023-09-19T13:04:29;100304.31;;;20.43
71630;BMP280;59479;51.902;8.212;2023-09-19T13:07:01;100308.78;;;20.38
71630;BMP280;59479;51.902;8.212;2023-09-19T13:09:33;100306.63;;;20.47
71630;BMP280;59479;51.902;8.212;2023-09-19T13:12:39;100318.25;;;20.54
71630;BMP280;59479;51.902;8.212;2023-09-19T13:15:17;100304.84;;;20.49
71630;BMP280;59479;51.902;8.212;2023-09-19T13:17:49;100311.22;;;20.59
71630;BMP280;59479;51.902;8.212;2023-09-19T13:20:25;100308.28;;;20.48
71630;BMP280;59479;51.902;8.212;2023-09-19T13:22:57;100309.78;;;20.52
71630;BMP280;59479;51.902;8.212;2023-09-19T13:26:20;100313.06;;;20.56
71630;BMP280;59479;51.902;8.212;2023-09-19T13:29:21;100308.50;;;20.62
71630;BMP280;59479;51.902;8.212;2023-09-19T13:32:02;100300.59;;;20.68
71630;BMP280;59479;51.902;8.212;2023-09-19T13:34:37;100302.78;;;20.75
71630;BMP280;59479;51.902;8.212;2023-09-19T13:37:15;100309.19;;;20.84
71630;BMP280;59479;51.902;8.212;2023-09-19T13:39:45;100306.25;;;20.74
71630;BMP280;59479;51.902;8.212;2023-09-19T13:42:18;100309.28;;;20.82
71630;BMP280;59479;51.902;8.212;2023-09-19T13:44:43;100304.09;;;20.84
71630;BMP280;59479;51.902;8.212;2023-09-19T13:47:09;100304.09;;;20.84
71630;BMP280;59479;51.902;8.212;2023-09-19T13:49:40;100301.81;;;20.78
71630;BMP280;59479;51.902;8.212;2023-09-19T13:52:20;100297.03;;;20.89
71630;BMP280;59479;51.902;8.212;2023-09-19T13:54:56;100292.53;;;20.94
71630;BMP280;59479;51.902;8.212;2023-09-19T13:57:32;100291.25;;;20.85
71630;BMP280;59479;51.902;8.212;2023-09-19T13:59:58;100303.53;;;20.96
71630;BMP280;59479;51.902;8.212;2023-09-19T14:02:32;100292.25;;;21.00
71630;BMP280;59479;51.902;8.212;2023-09-19T14:05:01;100290.47;;;21.02
71630;BMP280;59479;51.902;8.212;2023-09-19T14:07:35;100281.81;;;20.87
71630;BMP280;59479;51.902;8.212;2023-09-19T14:10:02;100290.91;;;20.93
71630;BMP280;59479;51.902;8.212;2023-09-19T14:12:33;100277.47;;;21.06
71630;BMP280;59479;51.902;8.212;2023-09-19T14:15:00;100286.03;;;21.05
71630;BMP280;59479;51.902;8.212;2023-09-19T14:17:28;100288.38;;;21.09
71630;BMP280;59479;51.902;8.212;2023-09-19T14:19:54;100283.47;;;21.05
71630;BMP280;59479;51.902;8.212;2023-09-19T14:22:23;100269.88;;;21.05
71630;BMP280;59479;51.902;8.212;2023-09-19T14:24:52;100274.41;;;21.16
71630;BMP280;59479;51.902;8.212;2023-09-19T14:27:21;100270.50;;;21.26
71630;BMP280;59479;51.902;8.212;2023-09-19T14:29:47;100275.16;;;21.35
71630;BMP280;59479;51.902;8.212;2023-09-19T14:32:19;100271.03;;;21.33
71630;BMP280;59479;51.902;8.212;2023-09-19T14:35:06;100278.44;;;21.37
71630;BMP280;59479;51.902;8.212;2023-09-19T14:37:31;100290.03;;;21.46
71630;BMP280;59479;51.902;8.212;2023-09-19T14:40:03;100283.78;;;21.51
71630;BMP280;59479;51.902;8.212;2023-09-19T14:42:41;100283.69;;;21.52
71630;BMP280;59479;51.902;8.212;2023-09-19T14:45:06;100286.06;;;21.39
71630;BMP280;59479;51.902;8.212;2023-09-19T14:47:37;100290.94;;;21.26
71630;BMP280;59479;51.902;8.212;2023-09-19T14:50:06;100286.44;;;21.31
71630;BMP280;59479;51.902;8.212;2023-09-19T14:52:34;100296.84;;;21.45
71630;BMP280;59479;51.902;8.212;2023-09-19T14:55:06;100290.66;;;21.32
71630;BMP280;59479;51.902;8.212;2023-09-19T14:57:41;100299.69;;;21.39
71630;BMP280;59479;51.902;8.212;2023-09-19T15:00:08;100303.13;;;21.38